Terminal Aerodrome Forecast
Issued by NWS

Home | Current Version | Previous Version | Graphics & Text | Print | Product List | Glossary On
Versions: 1 2 3 4 5 6 7 8 9 10 11 12
000
FTUS45 KGGW 081122
TAFGDV
TAF
KGDV 081122Z 0812/0912 29010KT P6SM SCT110 WS020/32035KT
     FM081800 30017G25KT P6SM SCT110
     FM090100 30010KT P6SM FEW170
     FM090600 28006KT P6SM SKC=

USA.gov is the U.S. government's official web portal to all federal, state and local government web resources and services.